Alcova, WY

10:31 AM MDT on October 02, 2014 (GMT -0600)
Natrona County International | Change Station
CLOSE
Current Station
Airport
Location: Casper,
Elevation: 5289 ft
Nearby Weather Stations

Elev 5289 ft 42.90 °N, 106.47 °W | Updated 38 minutes ago

Clear
Clear
46 °F
Feels Like 38 °F
N
22
Wind Variable Wind from SW
Gusts 30 mph

Today
High -- | Low -- °F
--% Chance of Precip.
Yesterday
High -- | Low -- °F
Precip. -- in
7:05 AM 6:47 PM
First Quarter, 60% visible
Pressure 30.08 in
Visibility 10.0 miles
Clouds Clear
Windchill 38 °F
Dew Point 34 °F
Humidity 63%
Rainfall 0.05 in
Snow Depth 0 in , 0 in , 0 in
UV 3 out of 12
Pollen 3.80 out of 12
Air Quality Not available.
Flu Activity Not available.
METAR KCPR 021553Z 22019G26KT 10SM CLR 08/01 A3009 RMK AO2 PK WND 23026/1551 SLP185 T00780011

More Conditions Fewer Conditions

Pressure 30.08 in
Visibility 10.0 miles
Clouds Clear
Windchill 38 °F
Dew Point 34 °F
Humidity 63%
Rainfall 0.05 in
Snow Depth 0 in , 0 in , 0 in
UV 3 out of 12
Pollen 3.80 out of 12
Air Quality Not available.
Flu Activity Not available.
METAR KCPR 021553Z 22019G26KT 10SM CLR 08/01 A3009 RMK AO2 PK WND 23026/1551 SLP185 T00780011

More Conditions Fewer Conditions

10-Day Weather Forecast

Almanac

Astronomy

Oct. 02, 2014 Rise Set
Actual Time 7:05 AM MDT 6:47 PM MDT
Civil Twilight 6:37 AM MDT 7:15 PM MDT
Nautical Twilight 6:05 AM MDT 7:47 PM MDT
Astronomical Twilight 5:32 AM MDT 8:20 PM MDT
Moon 3:02 PM MDT 12:18 AM MDT
Length of Visible Light 12h 37m
Length of Day
11h 41m
Tomorrow will be 2m 51s shorter.
First Quarter, 60% of the Moon is Illuminated
Today
First Quarter
Oct 8
Full
Oct 15
Last Quarter
Oct 23
New
Oct 30
First Quarter

Today's Extremes

State Highs State Lows

Community

WunderPhotos

Upload Photos

1,758,294 photos uploaded!

WunderBlogs® & News

Nearby

Snow Depth

Station Depth Elevation
South Brush Creek 0 in 8440 ft
Gunsight Pass 0 in 9820 ft
Reno Hill 1 in 8500 ft
Phillips Bench 0 in 8200 ft
Crow Creek 0 in 8330 ft

Earthquake Activity

City Distance Mag. Time & Date
No recent earthquake activity has been reported nearby.
Minimum magnitude displayed is 2.5.

Coastal Water Temperatures

Place Temperature
No Stations Reporting

Nearby Weather Stations